sensor_id;sensor_type;location;lat;lon;timestamp;pressure;altitude;pressure_sealevel;temperature;humidity
71559;BME280;59382;43.852;25.952;2024-03-23T00:54:22;101368.97;;;10.70;46.80
71559;BME280;59382;43.852;25.952;2024-03-23T00:56:48;101383.41;;;10.84;47.23
71559;BME280;59382;43.852;25.952;2024-03-23T00:59:14;101381.97;;;10.88;46.93
71559;BME280;59382;43.852;25.952;2024-03-23T01:01:39;101365.16;;;10.86;46.60
71559;BME280;59382;43.852;25.952;2024-03-23T01:04:05;101370.16;;;10.89;47.03
71559;BME280;59382;43.852;25.952;2024-03-23T01:06:31;101375.16;;;10.92;46.63
71559;BME280;59382;43.852;25.952;2024-03-23T01:08:56;101374.78;;;10.95;46.48
71559;BME280;59382;43.852;25.952;2024-03-23T01:11:22;101356.00;;;10.87;46.68
71559;BME280;59382;43.852;25.952;2024-03-23T01:13:48;101361.03;;;10.90;46.85
71559;BME280;59382;43.852;25.952;2024-03-23T01:16:13;101366.38;;;10.83;46.87
71559;BME280;59382;43.852;25.952;2024-03-23T01:18:39;101380.13;;;10.88;46.88
71559;BME280;59382;43.852;25.952;2024-03-23T01:21:04;101369.25;;;10.82;46.64
71559;BME280;59382;43.852;25.952;2024-03-23T01:23:30;101366.34;;;10.77;46.68
71559;BME280;59382;43.852;25.952;2024-03-23T01:25:56;101361.47;;;10.66;47.00
71559;BME280;59382;43.852;25.952;2024-03-23T01:28:21;101375.88;;;10.73;46.86
71559;BME280;59382;43.852;25.952;2024-03-23T01:30:48;101375.44;;;10.76;47.19
71559;BME280;59382;43.852;25.952;2024-03-23T01:33:13;101372.94;;;10.74;47.17
71559;BME280;59382;43.852;25.952;2024-03-23T01:35:39;101377.56;;;10.80;46.79
71559;BME280;59382;43.852;25.952;2024-03-23T01:38:05;101373.41;;;10.78;46.56
71559;BME280;59382;43.852;25.952;2024-03-23T01:40:31;101373.38;;;10.71;46.68
71559;BME280;59382;43.852;25.952;2024-03-23T01:43:05;101365.06;;;10.73;46.90
71559;BME280;59382;43.852;25.952;2024-03-23T01:45:33;101376.34;;;10.83;46.97
71559;BME280;59382;43.852;25.952;2024-03-23T01:47:59;101367.22;;;10.84;46.53
71559;BME280;59382;43.852;25.952;2024-03-23T01:50:26;101356.34;;;10.77;46.87
71559;BME280;59382;43.852;25.952;2024-03-23T01:52:52;101366.03;;;10.93;46.46
71559;BME280;59382;43.852;25.952;2024-03-23T01:55:17;101366.03;;;10.93;46.44
71559;BME280;59382;43.852;25.952;2024-03-23T01:57:43;101373.94;;;10.94;46.84
71559;BME280;59382;43.852;25.952;2024-03-23T02:00:09;101358.97;;;10.92;46.47
71559;BME280;59382;43.852;25.952;2024-03-23T02:02:46;101363.13;;;10.94;46.38
71559;BME280;59382;43.852;25.952;2024-03-23T02:05:13;101342.50;;;10.87;46.43
71559;BME280;59382;43.852;25.952;2024-03-23T02:07:39;101356.88;;;10.94;46.23
71559;BME280;59382;43.852;25.952;2024-03-23T02:10:07;101352.28;;;10.88;46.63
71559;BME280;59382;43.852;25.952;2024-03-23T02:12:33;101355.63;;;10.90;46.72
71559;BME280;59382;43.852;25.952;2024-03-23T02:14:58;101359.75;;;10.86;46.44
71559;BME280;59382;43.852;25.952;2024-03-23T02:17:24;101354.34;;;10.86;46.85
71559;BME280;59382;43.852;25.952;2024-03-23T02:19:50;101351.66;;;10.86;46.52
71559;BME280;59382;43.852;25.952;2024-03-23T02:22:16;101358.31;;;10.90;46.37
71559;BME280;59382;43.852;25.952;2024-03-23T02:24:42;101344.75;;;10.83;46.33
71559;BME280;59382;43.852;25.952;2024-03-23T02:27:08;101363.88;;;10.82;46.27
71559;BME280;59382;43.852;25.952;2024-03-23T02:29:34;101346.69;;;10.62;46.61
71559;BME280;59382;43.852;25.952;2024-03-23T02:31:59;101364.16;;;10.66;46.63
71559;BME280;59382;43.852;25.952;2024-03-23T02:34:25;101366.88;;;10.66;46.57
71559;BME280;59382;43.852;25.952;2024-03-23T02:36:51;101367.13;;;10.71;46.94
71559;BME280;59382;43.852;25.952;2024-03-23T02:39:16;101368.38;;;10.75;46.90
71559;BME280;59382;43.852;25.952;2024-03-23T02:41:42;101377.94;;;10.77;46.79
71559;BME280;59382;43.852;25.952;2024-03-23T02:44:07;101322.94;;;10.51;46.49
71559;BME280;59382;43.852;25.952;2024-03-23T02:46:37;101363.88;;;10.82;46.39
71559;BME280;59382;43.852;25.952;2024-03-23T02:49:03;101353.22;;;10.74;46.48
71559;BME280;59382;43.852;25.952;2024-03-23T02:51:30;101348.88;;;10.73;46.70
71559;BME280;59382;43.852;25.952;2024-03-23T02:53:55;101347.56;;;10.69;46.32
71559;BME280;59382;43.852;25.952;2024-03-23T02:56:21;101363.53;;;10.64;46.25
71559;BME280;59382;43.852;25.952;2024-03-23T02:58:47;101354.72;;;10.49;46.50
71559;BME280;59382;43.852;25.952;2024-03-23T03:01:12;101347.78;;;10.40;46.44
71559;BME280;59382;43.852;25.952;2024-03-23T03:03:38;101355.22;;;10.38;46.99
71559;BME280;59382;43.852;25.952;2024-03-23T03:06:04;101356.66;;;10.34;46.86
71559;BME280;59382;43.852;25.952;2024-03-23T03:08:29;101340.47;;;10.13;46.54
71559;BME280;59382;43.852;25.952;2024-03-23T03:10:55;101354.03;;;10.04;47.21
71559;BME280;59382;43.852;25.952;2024-03-23T03:13:20;101349.81;;;9.95;47.13
71559;BME280;59382;43.852;25.952;2024-03-23T03:15:46;101354.31;;;9.88;47.42
71559;BME280;59382;43.852;25.952;2024-03-23T03:18:12;101361.22;;;9.76;47.28
71559;BME280;59382;43.852;25.952;2024-03-23T03:20:40;101363.09;;;9.61;47.64
71559;BME280;59382;43.852;25.952;2024-03-23T03:23:06;101360.91;;;9.50;47.45
71559;BME280;59382;43.852;25.952;2024-03-23T03:25:32;101347.94;;;9.39;47.76
71559;BME280;59382;43.852;25.952;2024-03-23T03:27:58;101342.91;;;9.36;47.68
71559;BME280;59382;43.852;25.952;2024-03-23T03:30:24;101341.69;;;9.39;47.60
71559;BME280;59382;43.852;25.952;2024-03-23T03:32:53;101346.13;;;9.46;47.75
71559;BME280;59382;43.852;25.952;2024-03-23T03:35:19;101335.56;;;9.45;48.01
71559;BME280;59382;43.852;25.952;2024-03-23T03:37:44;101347.69;;;9.55;47.61
71559;BME280;59382;43.852;25.952;2024-03-23T03:40:11;101327.03;;;9.41;47.91
71559;BME280;59382;43.852;25.952;2024-03-23T03:42:36;101320.47;;;9.29;47.67
71559;BME280;59382;43.852;25.952;2024-03-23T03:45:02;101312.84;;;9.18;47.94
71559;BME280;59382;43.852;25.952;2024-03-23T03:47:30;101330.31;;;9.22;48.04
71559;BME280;59382;43.852;25.952;2024-03-23T03:49:55;101328.00;;;9.19;48.21
71559;BME280;59382;43.852;25.952;2024-03-23T03:52:21;101340.97;;;9.30;47.84
71559;BME280;59382;43.852;25.952;2024-03-23T03:54:46;101346.09;;;9.25;47.87
71559;BME280;59382;43.852;25.952;2024-03-23T03:57:14;101328.09;;;9.11;48.12
71559;BME280;59382;43.852;25.952;2024-03-23T03:59:40;101338.50;;;9.14;48.18
71559;BME280;59382;43.852;25.952;2024-03-23T04:02:05;101340.16;;;9.15;48.03
71559;BME280;59382;43.852;25.952;2024-03-23T04:04:31;101345.91;;;9.12;48.33
71559;BME280;59382;43.852;25.952;2024-03-23T04:07:03;101338.50;;;9.14;48.21
71559;BME280;59382;43.852;25.952;2024-03-23T04:09:30;101341.72;;;9.24;48.15
71559;BME280;59382;43.852;25.952;2024-03-23T04:11:56;101337.91;;;9.33;47.94
71559;BME280;59382;43.852;25.952;2024-03-23T04:14:21;101338.75;;;9.34;47.98
71559;BME280;59382;43.852;25.952;2024-03-23T04:16:47;101312.84;;;9.18;48.13
71559;BME280;59382;43.852;25.952;2024-03-23T04:19:13;101322.81;;;9.18;48.25
71559;BME280;59382;43.852;25.952;2024-03-23T04:21:39;101336.63;;;9.29;48.38
71559;BME280;59382;43.852;25.952;2024-03-23T04:24:05;101336.88;;;9.34;48.27
71559;BME280;59382;43.852;25.952;2024-03-23T04:26:43;101317.56;;;9.31;48.20
71559;BME280;59382;43.852;25.952;2024-03-23T04:29:08;101330.34;;;9.43;48.20
71559;BME280;59382;43.852;25.952;2024-03-23T04:31:34;101332.47;;;9.48;47.68
71559;BME280;59382;43.852;25.952;2024-03-23T04:34:03;101335.50;;;9.38;48.16
71559;BME280;59382;43.852;25.952;2024-03-23T04:36:29;101334.59;;;9.31;48.04
71559;BME280;59382;43.852;25.952;2024-03-23T04:38:58;101328.25;;;9.24;48.00
71559;BME280;59382;43.852;25.952;2024-03-23T04:41:23;101341.25;;;9.35;48.15
71559;BME280;59382;43.852;25.952;2024-03-23T04:43:49;101313.31;;;9.22;47.94
71559;BME280;59382;43.852;25.952;2024-03-23T04:46:14;101346.78;;;9.48;48.16
71559;BME280;59382;43.852;25.952;2024-03-23T04:48:40;101333.59;;;9.53;47.88
71559;BME280;59382;43.852;25.952;2024-03-23T04:51:06;101333.50;;;9.47;47.61
71559;BME280;59382;43.852;25.952;2024-03-23T04:53:32;101341.63;;;9.32;47.71
71559;BME280;59382;43.852;25.952;2024-03-23T04:55:58;101347.47;;;9.21;48.65
71559;BME280;59382;43.852;25.952;2024-03-23T04:58:27;101325.13;;;9.06;48.44
71559;BME280;59382;43.852;25.952;2024-03-23T05:00:56;101339.22;;;9.08;48.45
71559;BME280;59382;43.852;25.952;2024-03-23T05:03:23;101342.19;;;8.99;48.24
71559;BME280;59382;43.852;25.952;2024-03-23T05:05:49;101342.38;;;8.97;48.49
71559;BME280;59382;43.852;25.952;2024-03-23T05:08:15;101338.31;;;9.01;48.74
71559;BME280;59382;43.852;25.952;2024-03-23T05:10:42;101337.75;;;9.06;48.51
71559;BME280;59382;43.852;25.952;2024-03-23T05:13:07;101341.47;;;9.19;48.36
71559;BME280;59382;43.852;25.952;2024-03-23T05:15:33;101334.31;;;9.26;48.56
71559;BME280;59382;43.852;25.952;2024-03-23T05:17:59;101344.00;;;9.56;48.29
71559;BME280;59382;43.852;25.952;2024-03-23T05:20:25;101350.19;;;9.92;47.98
71559;BME280;59382;43.852;25.952;2024-03-23T05:22:50;101345.56;;;10.22;47.82
71559;BME280;59382;43.852;25.952;2024-03-23T05:25:16;101343.38;;;10.39;47.39
71559;BME280;59382;43.852;25.952;2024-03-23T05:27:42;101349.41;;;10.62;47.29
71559;BME280;59382;43.852;25.952;2024-03-23T05:30:08;101343.09;;;10.82;47.14
71559;BME280;59382;43.852;25.952;2024-03-23T05:32:34;101333.28;;;11.02;46.72
71559;BME280;59382;43.852;25.952;2024-03-23T05:35:00;101341.78;;;11.46;46.88
71559;BME280;59382;43.852;25.952;2024-03-23T05:37:26;101347.38;;;11.92;46.45
71559;BME280;59382;43.852;25.952;2024-03-23T05:39:52;101331.38;;;12.23;45.40
71559;BME280;59382;43.852;25.952;2024-03-23T05:42:18;101330.97;;;12.52;45.14
71559;BME280;59382;43.852;25.952;2024-03-23T05:44:46;101341.16;;;12.89;44.79
71559;BME280;59382;43.852;25.952;2024-03-23T05:47:13;101336.09;;;13.25;44.56
71559;BME280;59382;43.852;25.952;2024-03-23T05:49:42;101313.91;;;13.41;43.76
71559;BME280;59382;43.852;25.952;2024-03-23T05:52:09;101318.84;;;13.57;43.77
71559;BME280;59382;43.852;25.952;2024-03-23T05:54:35;101330.00;;;13.80;43.73
71559;BME280;59382;43.852;25.952;2024-03-23T05:57:01;101329.84;;;14.00;43.50
71559;BME280;59382;43.852;25.952;2024-03-23T05:59:27;101320.25;;;14.04;42.86
71559;BME280;59382;43.852;25.952;2024-03-23T06:01:53;101327.22;;;14.18;42.79
71559;BME280;59382;43.852;25.952;2024-03-23T06:04:19;101325.34;;;14.50;42.76
71559;BME280;59382;43.852;25.952;2024-03-23T06:06:45;101323.41;;;14.75;42.22
71559;BME280;59382;43.852;25.952;2024-03-23T06:09:11;101324.88;;;14.95;41.77
71559;BME280;59382;43.852;25.952;2024-03-23T06:11:36;101306.25;;;14.99;41.53
71559;BME280;59382;43.852;25.952;2024-03-23T06:14:02;101284.66;;;15.04;41.43
71559;BME280;59382;43.852;25.952;2024-03-23T06:16:28;101331.25;;;15.61;41.32
71559;BME280;59382;43.852;25.952;2024-03-23T06:18:54;101319.28;;;15.92;40.74
71559;BME280;59382;43.852;25.952;2024-03-23T06:21:24;101327.03;;;16.48;40.37
71559;BME280;59382;43.852;25.952;2024-03-23T06:23:52;101332.63;;;16.87;40.11
71559;BME280;59382;43.852;25.952;2024-03-23T06:26:18;101316.81;;;17.24;39.55
71559;BME280;59382;43.852;25.952;2024-03-23T06:28:44;101329.28;;;17.71;39.16
71559;BME280;59382;43.852;25.952;2024-03-23T06:31:11;101327.47;;;18.05;38.74
71559;BME280;59382;43.852;25.952;2024-03-23T06:33:37;101309.84;;;18.29;38.50
71559;BME280;59382;43.852;25.952;2024-03-23T06:36:04;101319.28;;;18.66;38.14
71559;BME280;59382;43.852;25.952;2024-03-23T06:38:30;101321.81;;;18.89;37.73
71559;BME280;59382;43.852;25.952;2024-03-23T06:40:55;101303.38;;;19.01;37.37
71559;BME280;59382;43.852;25.952;2024-03-23T06:43:21;101319.00;;;19.22;37.18
71559;BME280;59382;43.852;25.952;2024-03-23T06:45:56;101302.41;;;19.28;36.55
71559;BME280;59382;43.852;25.952;2024-03-23T06:48:21;101310.56;;;19.45;36.52
71559;BME280;59382;43.852;25.952;2024-03-23T06:50:47;101315.91;;;19.35;36.21
71559;BME280;59382;43.852;25.952;2024-03-23T06:53:13;101309.28;;;18.93;36.39
71559;BME280;59382;43.852;25.952;2024-03-23T06:55:39;101304.13;;;18.58;36.76
71559;BME280;59382;43.852;25.952;2024-03-23T06:58:05;101312.69;;;18.34;36.92
71559;BME280;59382;43.852;25.952;2024-03-23T07:00:31;101312.53;;;18.24;37.18
71559;BME280;59382;43.852;25.952;2024-03-23T07:03:00;101299.84;;;18.18;36.98
71559;BME280;59382;43.852;25.952;2024-03-23T07:05:26;101290.09;;;18.22;37.40
71559;BME280;59382;43.852;25.952;2024-03-23T07:07:51;101277.75;;;18.36;36.97
71559;BME280;59382;43.852;25.952;2024-03-23T07:10:17;101301.84;;;18.72;36.84
71559;BME280;59382;43.852;25.952;2024-03-23T07:12:43;101303.50;;;18.89;36.73
71559;BME280;59382;43.852;25.952;2024-03-23T07:15:09;101299.50;;;18.97;36.57
71559;BME280;59382;43.852;25.952;2024-03-23T07:17:34;101287.25;;;18.83;36.59
71559;BME280;59382;43.852;25.952;2024-03-23T07:20:01;101286.28;;;18.72;36.54
71559;BME280;59382;43.852;25.952;2024-03-23T07:22:32;101290.16;;;18.76;36.63
71559;BME280;59382;43.852;25.952;2024-03-23T07:25:02;101290.16;;;18.76;36.60
71559;BME280;59382;43.852;25.952;2024-03-23T07:27:28;101286.53;;;18.71;36.78
71559;BME280;59382;43.852;25.952;2024-03-23T07:29:54;101283.16;;;18.64;36.70
71559;BME280;59382;43.852;25.952;2024-03-23T07:32:20;101268.34;;;18.60;36.66
71559;BME280;59382;43.852;25.952;2024-03-23T07:34:46;101269.97;;;18.61;36.17
71559;BME280;59382;43.852;25.952;2024-03-23T07:37:12;101284.00;;;18.64;36.32
71559;BME280;59382;43.852;25.952;2024-03-23T07:39:39;101275.88;;;18.53;36.30
71559;BME280;59382;43.852;25.952;2024-03-23T07:42:06;101275.97;;;18.41;36.14
71559;BME280;59382;43.852;25.952;2024-03-23T07:44:31;101281.38;;;18.25;36.40
71559;BME280;59382;43.852;25.952;2024-03-23T07:47:00;101281.56;;;18.02;36.41
71559;BME280;59382;43.852;25.952;2024-03-23T07:49:26;101271.63;;;17.96;36.86
71559;BME280;59382;43.852;25.952;2024-03-23T07:51:52;101273.94;;;18.20;36.71
71559;BME280;59382;43.852;25.952;2024-03-23T07:54:17;101270.66;;;18.51;36.35
71559;BME280;59382;43.852;25.952;2024-03-23T07:56:43;101264.19;;;18.57;35.78
71559;BME280;59382;43.852;25.952;2024-03-23T07:59:09;101270.41;;;18.53;35.89
71559;BME280;59382;43.852;25.952;2024-03-23T08:01:35;101259.94;;;18.33;36.14
71559;BME280;59382;43.852;25.952;2024-03-23T08:04:00;101261.88;;;18.33;36.29
71559;BME280;59382;43.852;25.952;2024-03-23T08:06:26;101269.66;;;18.41;36.17
71559;BME280;59382;43.852;25.952;2024-03-23T08:08:55;101261.22;;;18.42;36.16
71559;BME280;59382;43.852;25.952;2024-03-23T08:11:29;101256.66;;;18.48;36.18
71559;BME280;59382;43.852;25.952;2024-03-23T08:13:55;101263.88;;;18.54;36.04
71559;BME280;59382;43.852;25.952;2024-03-23T08:16:21;101263.88;;;18.54;36.10
71559;BME280;59382;43.852;25.952;2024-03-23T08:18:47;101256.72;;;18.53;35.92
71559;BME280;59382;43.852;25.952;2024-03-23T08:21:13;101262.78;;;18.55;36.25
71559;BME280;59382;43.852;25.952;2024-03-23T08:23:39;101243.81;;;18.48;36.16
71559;BME280;59382;43.852;25.952;2024-03-23T08:26:09;101242.91;;;18.59;35.88
71559;BME280;59382;43.852;25.952;2024-03-23T08:28:35;101248.72;;;18.84;35.94
71559;BME280;59382;43.852;25.952;2024-03-23T08:31:03;101239.25;;;18.92;35.52
71559;BME280;59382;43.852;25.952;2024-03-23T08:33:29;101251.50;;;19.06;35.36
71559;BME280;59382;43.852;25.952;2024-03-23T08:35:57;101248.25;;;19.09;35.38
71559;BME280;59382;43.852;25.952;2024-03-23T08:38:26;101254.91;;;19.18;35.12
71559;BME280;59382;43.852;25.952;2024-03-23T08:43:25;101263.06;;;19.13;35.09
71559;BME280;59382;43.852;25.952;2024-03-23T08:45:51;101249.00;;;19.04;34.82
71559;BME280;59382;43.852;25.952;2024-03-23T08:48:18;101253.53;;;18.94;34.81
71559;BME280;59382;43.852;25.952;2024-03-23T08:50:46;101243.28;;;18.68;34.76
71559;BME280;59382;43.852;25.952;2024-03-23T08:53:12;101230.56;;;18.57;35.12
71559;BME280;59382;43.852;25.952;2024-03-23T08:55:37;101242.72;;;18.66;35.23
71559;BME280;59382;43.852;25.952;2024-03-23T08:58:03;101237.53;;;18.64;35.33
71559;BME280;59382;43.852;25.952;2024-03-23T09:00:32;101223.44;;;18.56;35.31
71559;BME280;59382;43.852;25.952;2024-03-23T09:02:57;101221.16;;;18.48;35.38
71559;BME280;59382;43.852;25.952;2024-03-23T09:05:23;101227.75;;;18.52;35.49
71559;BME280;59382;43.852;25.952;2024-03-23T09:07:49;101227.38;;;18.65;35.44
71559;BME280;59382;43.852;25.952;2024-03-23T09:10:15;101207.72;;;18.63;35.04
71559;BME280;59382;43.852;25.952;2024-03-23T09:12:41;101226.22;;;18.77;35.13
71559;BME280;59382;43.852;25.952;2024-03-23T09:15:06;101217.81;;;18.84;35.08
71559;BME280;59382;43.852;25.952;2024-03-23T09:17:32;101204.72;;;18.86;34.88
71559;BME280;59382;43.852;25.952;2024-03-23T09:19:58;101209.75;;;18.94;34.54
71559;BME280;59382;43.852;25.952;2024-03-23T09:22:23;101212.78;;;18.97;34.34
71559;BME280;59382;43.852;25.952;2024-03-23T09:24:49;101212.53;;;18.99;33.95
71559;BME280;59382;43.852;25.952;2024-03-23T09:27:15;101187.22;;;18.87;33.93
71559;BME280;59382;43.852;25.952;2024-03-23T09:29:40;101186.94;;;18.83;33.95
71559;BME280;59382;43.852;25.952;2024-03-23T09:32:06;101180.09;;;18.86;33.82
71559;BME280;59382;43.852;25.952;2024-03-23T09:34:31;101185.69;;;18.96;34.18
71559;BME280;59382;43.852;25.952;2024-03-23T09:36:57;101167.03;;;18.88;33.24
71559;BME280;59382;43.852;25.952;2024-03-23T09:39:23;101191.16;;;18.96;33.59
71559;BME280;59382;43.852;25.952;2024-03-23T09:41:48;101176.44;;;18.97;33.40
71559;BME280;59382;43.852;25.952;2024-03-23T09:44:14;101179.69;;;18.94;33.52
71559;BME280;59382;43.852;25.952;2024-03-23T09:46:40;101173.63;;;18.92;33.08
71559;BME280;59382;43.852;25.952;2024-03-23T09:49:08;101161.91;;;18.75;32.86
71559;BME280;59382;43.852;25.952;2024-03-23T09:51:38;101172.28;;;18.73;32.59
71559;BME280;59382;43.852;25.952;2024-03-23T09:54:03;101155.44;;;18.59;32.86
71559;BME280;59382;43.852;25.952;2024-03-23T09:56:29;101154.47;;;18.70;32.82
71559;BME280;59382;43.852;25.952;2024-03-23T09:59:04;101151.69;;;18.65;32.03
71559;BME280;59382;43.852;25.952;2024-03-23T10:01:30;101154.16;;;18.67;32.37
71559;BME280;59382;43.852;25.952;2024-03-23T10:03:56;101148.97;;;18.65;32.55
71559;BME280;59382;43.852;25.952;2024-03-23T10:06:25;101129.50;;;18.62;32.46
71559;BME280;59382;43.852;25.952;2024-03-23T10:08:52;101139.50;;;18.73;32.61
71559;BME280;59382;43.852;25.952;2024-03-23T10:11:19;101139.03;;;18.81;32.72
71559;BME280;59382;43.852;25.952;2024-03-23T10:13:46;101132.03;;;18.90;32.60
71559;BME280;59382;43.852;25.952;2024-03-23T10:16:12;101127.38;;;18.90;32.28
71559;BME280;59382;43.852;25.952;2024-03-23T10:18:45;101122.75;;;18.91;32.24
71559;BME280;59382;43.852;25.952;2024-03-23T10:21:11;101112.13;;;18.94;32.41
71559;BME280;59382;43.852;25.952;2024-03-23T10:23:38;101095.41;;;18.91;32.37
71559;BME280;59382;43.852;25.952;2024-03-23T10:26:24;101113.56;;;19.02;32.09
71559;BME280;59382;43.852;25.952;2024-03-23T10:28:59;101103.72;;;19.01;31.20
71559;BME280;59382;43.852;25.952;2024-03-23T10:31:37;101098.19;;;18.96;31.69
71559;BME280;59382;43.852;25.952;2024-03-23T10:34:06;101091.06;;;18.95;32.25
71559;BME280;59382;43.852;25.952;2024-03-23T10:36:34;101076.81;;;18.93;31.86
71559;BME280;59382;43.852;25.952;2024-03-23T10:38:59;101073.03;;;18.94;32.23
71559;BME280;59382;43.852;25.952;2024-03-23T10:41:31;101073.63;;;19.01;31.75
71559;BME280;59382;43.852;25.952;2024-03-23T10:43:57;101066.25;;;19.01;32.08
71559;BME280;59382;43.852;25.952;2024-03-23T10:46:23;101071.47;;;19.03;32.08
71559;BME280;59382;43.852;25.952;2024-03-23T10:48:49;101060.53;;;19.03;32.06
71559;BME280;59382;43.852;25.952;2024-03-23T10:51:17;101023.41;;;18.85;32.05
71559;BME280;59382;43.852;25.952;2024-03-23T10:53:45;101035.34;;;19.01;31.89
71559;BME280;59382;43.852;25.952;2024-03-23T10:56:12;101054.84;;;19.09;31.93
71559;BME280;59382;43.852;25.952;2024-03-23T10:58:41;101033.19;;;19.03;31.79
71559;BME280;59382;43.852;25.952;2024-03-23T11:01:11;101036.19;;;19.01;31.67
71559;BME280;59382;43.852;25.952;2024-03-23T11:03:38;101027.91;;;18.96;31.68
71559;BME280;59382;43.852;25.952;2024-03-23T11:06:06;101035.88;;;18.98;31.97
71559;BME280;59382;43.852;25.952;2024-03-23T11:08:40;101015.22;;;18.85;31.79
71559;BME280;59382;43.852;25.952;2024-03-23T11:11:20;101016.66;;;18.93;30.67
71559;BME280;59382;43.852;25.952;2024-03-23T11:13:52;101016.19;;;19.01;31.57
71559;BME280;59382;43.852;25.952;2024-03-23T11:16:28;100997.56;;;18.98;31.33
71559;BME280;59382;43.852;25.952;2024-03-23T11:19:39;101007.03;;;19.17;30.88
71559;BME280;59382;43.852;25.952;2024-03-23T11:22:05;100996.59;;;19.09;31.40
71559;BME280;59382;43.852;25.952;2024-03-23T11:24:31;101005.34;;;19.11;31.24
71559;BME280;59382;43.852;25.952;2024-03-23T11:26:57;100992.19;;;19.08;31.41
71559;BME280;59382;43.852;25.952;2024-03-23T11:29:27;100990.03;;;19.10;30.85
71559;BME280;59382;43.852;25.952;2024-03-23T11:31:53;100973.00;;;19.03;30.75
71559;BME280;59382;43.852;25.952;2024-03-23T11:34:19;100978.31;;;19.14;30.82
71559;BME280;59382;43.852;25.952;2024-03-23T11:36:46;100972.78;;;19.09;30.90
71559;BME280;59382;43.852;25.952;2024-03-23T11:39:13;100975.81;;;19.13;30.81
71559;BME280;59382;43.852;25.952;2024-03-23T11:41:50;100973.63;;;19.10;30.74
71559;BME280;59382;43.852;25.952;2024-03-23T11:44:20;100971.13;;;19.08;30.98
71559;BME280;59382;43.852;25.952;2024-03-23T11:46:46;100937.94;;;18.95;31.06
71559;BME280;59382;43.852;25.952;2024-03-23T11:49:25;100952.00;;;19.08;30.48
71559;BME280;59382;43.852;25.952;2024-03-23T11:51:51;100955.00;;;19.07;30.89
71559;BME280;59382;43.852;25.952;2024-03-23T11:54:26;100943.47;;;19.05;30.46
71559;BME280;59382;43.852;25.952;2024-03-23T11:57:03;100939.03;;;18.99;30.45
71559;BME280;59382;43.852;25.952;2024-03-23T11:59:40;100939.34;;;19.02;30.93
71559;BME280;59382;43.852;25.952;2024-03-23T12:02:07;100934.72;;;19.03;30.84
71559;BME280;59382;43.852;25.952;2024-03-23T12:04:33;100921.06;;;19.03;30.69
71559;BME280;59382;43.852;25.952;2024-03-23T12:07:20;100906.75;;;18.96;30.10
71559;BME280;59382;43.852;25.952;2024-03-23T12:09:49;100911.19;;;19.02;30.63
71559;BME280;59382;43.852;25.952;2024-03-23T12:12:27;100893.69;;;19.03;30.09
71559;BME280;59382;43.852;25.952;2024-03-23T12:17:28;100906.41;;;19.19;30.25
71559;BME280;59382;43.852;25.952;2024-03-23T12:19:54;100901.19;;;19.17;30.41
71559;BME280;59382;43.852;25.952;2024-03-23T12:22:23;100896.50;;;19.13;30.37
71559;BME280;59382;43.852;25.952;2024-03-23T12:24:49;100887.47;;;19.12;30.42
71559;BME280;59382;43.852;25.952;2024-03-23T12:27:15;100877.31;;;19.08;30.27
71559;BME280;59382;43.852;25.952;2024-03-23T12:29:41;100885.84;;;19.16;30.33
71559;BME280;59382;43.852;25.952;2024-03-23T12:32:08;100880.38;;;19.16;30.46
71559;BME280;59382;43.852;25.952;2024-03-23T12:34:34;100871.84;;;19.08;30.22
71559;BME280;59382;43.852;25.952;2024-03-23T12:37:00;100873.53;;;19.14;30.28
71559;BME280;59382;43.852;25.952;2024-03-23T12:39:27;100873.00;;;19.17;30.35
71559;BME280;59382;43.852;25.952;2024-03-23T12:41:52;100858.41;;;19.06;30.55
71559;BME280;59382;43.852;25.952;2024-03-23T12:44:18;100849.94;;;19.08;30.22
71559;BME280;59382;43.852;25.952;2024-03-23T12:46:44;100854.09;;;19.15;30.20
71559;BME280;59382;43.852;25.952;2024-03-23T12:49:10;100851.16;;;19.22;30.03
71559;BME280;59382;43.852;25.952;2024-03-23T12:51:36;100847.94;;;19.30;30.05
71559;BME280;59382;43.852;25.952;2024-03-23T12:54:02;100841.38;;;19.31;30.19
71559;BME280;59382;43.852;25.952;2024-03-23T12:56:28;100848.19;;;19.28;30.22
71559;BME280;59382;43.852;25.952;2024-03-23T12:58:57;100828.66;;;19.15;30.11
71559;BME280;59382;43.852;25.952;2024-03-23T13:01:23;100823.75;;;19.17;30.23
71559;BME280;59382;43.852;25.952;2024-03-23T13:03:49;100831.50;;;19.30;30.26
71559;BME280;59382;43.852;25.952;2024-03-23T13:06:19;100814.28;;;19.29;30.28
71559;BME280;59382;43.852;25.952;2024-03-23T13:08:47;100827.22;;;19.44;30.05
71559;BME280;59382;43.852;25.952;2024-03-23T13:11:15;100820.69;;;19.50;30.13
71559;BME280;59382;43.852;25.952;2024-03-23T13:13:41;100818.22;;;19.48;29.92
71559;BME280;59382;43.852;25.952;2024-03-23T13:16:10;100821.22;;;19.47;29.62
71559;BME280;59382;43.852;25.952;2024-03-23T13:18:35;100819.03;;;19.49;29.90
71559;BME280;59382;43.852;25.952;2024-03-23T13:21:01;100805.88;;;19.46;29.62
71559;BME280;59382;43.852;25.952;2024-03-23T13:23:27;100804.78;;;19.47;29.97
71559;BME280;59382;43.852;25.952;2024-03-23T13:25:54;100798.75;;;19.45;29.97
71559;BME280;59382;43.852;25.952;2024-03-23T13:28:21;100806.97;;;19.45;30.05
71559;BME280;59382;43.852;25.952;2024-03-23T13:33:16;100789.13;;;19.32;30.11
71559;BME280;59382;43.852;25.952;2024-03-23T13:35:57;100779.56;;;19.35;29.71
71559;BME280;59382;43.852;25.952;2024-03-23T13:38:23;100789.44;;;19.41;29.87
71559;BME280;59382;43.852;25.952;2024-03-23T13:43:18;100764.72;;;19.26;29.99
71559;BME280;59382;43.852;25.952;2024-03-23T13:45:45;100780.41;;;19.35;30.07